Alabaster, MI

1:02 PM EDT on October 21, 2014 (GMT -0400)
Tawas Bay Weather | Change Station
CLOSE
Current Station
Personal Weather Station
Location: East Tawas, MI
Elevation: 590 ft
Nearby Weather Stations

Elev 590 ft 44.28 °N, 83.48 °W | Updated 2 seconds ago

Overcast
Overcast
44.8 °F
Feels Like 45 °F
N
2.0
Wind Variable Wind from NNW
Gusts 9.0 mph

Today
High -- | Low -- °F
--% Chance of Precip.
Yesterday
High -- | Low -- °F
Precip. -- in
7:56 AM 6:40 PM
Waning Crescent, 5% visible
Pressure 30.13 in
Visibility 10.0 miles
Clouds Overcast 2300 ft
Windchill 45 °F
Dew Point 38 °F
Humidity 77%
Rainfall 0.00 in
Snow Depth Not available.
UV 1 out of 12
Pollen 1.40 out of 12
Ozone Good
PM2.5 Good
Flu Activity Sporadic
METAR KOSC 211654Z AUTO 36010G18KT 10SM OVC023 06/01 A3013 RMK AO2 T00650019

More Conditions Fewer Conditions

Pressure 30.13 in
Visibility 10.0 miles
Clouds Overcast 2300 ft
Windchill 45 °F
Dew Point 38 °F
Humidity 77%
Rainfall 0.00 in
Snow Depth Not available.
UV 1 out of 12
Pollen 1.40 out of 12
Ozone Good
PM2.5 Good
Flu Activity Sporadic
METAR KOSC 211654Z AUTO 36010G18KT 10SM OVC023 06/01 A3013 RMK AO2 T00650019

More Conditions Fewer Conditions

Nowcast | as of 1:00 PM EDT on October 21, 2014

At 2 PM...mostly cloudy. Temperature 48. North winds 14 mph. At 4 PM...mostly cloudy. Temperature 49. North winds 12 mph. At 6 PM...partly cloudy. Temperature 46. North winds 9 mph. At 8 PM...partly cloudy. Temperature 43. North winds 8 mph.

×

10-Day Weather Forecast

Almanac

Astronomy

Oct. 21, 2014 Rise Set
Actual Time 7:56 AM EDT 6:40 PM EDT
Civil Twilight 7:27 AM EDT 7:09 PM EDT
Nautical Twilight 6:53 AM EDT 7:43 PM EDT
Astronomical Twilight 6:19 AM EDT 8:16 PM EDT
Moon 5:35 AM EDT 5:37 PM EDT
Length of Visible Light 11h 42m
Length of Day
10h 43m
Tomorrow will be 2m 52s shorter.
Waning Crescent, 5% of the Moon is Illuminated
Today
Waning Crescent
Oct 23
New
Oct 30
First Quarter
Nov 6
Full
Nov 14
Last Quarter

Today's Extremes

State Highs State Lows

Community

WunderPhotos

Upload Photos

1,763,713 photos uploaded!

Nearby

Air Quality

  Air Quality AQ Index Pollutant
Yesterday Good
PM2.5
Yesterday Good
OZONE
Current Good
OZONE
Current Good
PM2.5
Tuesday Good
PM2.5
Wednesday Good
PM2.5
Thursday Good
PM2.5
Friday Good
PM2.5
Saturday Good
PM2.5

Snow Depth

Station Depth Elevation
No new snow has been reported.

Earthquake Activity

City Distance Mag. Time & Date
No recent earthquake activity has been reported nearby.
Minimum magnitude displayed is 2.5.

Coastal Water Temperatures

Place Temperature
Alpena, MI 55.9 °F

Nearby Weather Stations